Time;durP1;ratioP1;P1;durP2;ratioP2;P2;SDS_P1;SDS_P2;PMS_P1;PMS_P2;Temp;Humidity;BMP_temperature;BMP_pressure;BME280_temperature;BME280_humidity;BME280_pressure;Samples;Min_cycle;Max_cycle;Signal;HPM_P1;HPM_P2
2023/02/13 00:00:38;;;;;;;4.22;1.33;;;;;;;;;;2084603;28;20109;-77
2023/02/13 00:01:57;;;;;;;3.78;1.63;;;;;;;;;;2081524;28;20029;-77
2023/02/13 00:03:16;;;;;;;5.70;1.98;;;;;;;;;;2084889;28;20029;-78
2023/02/13 00:04:35;;;;;;;3.40;1.70;;;;;;;;;;2082093;28;20029;-77
2023/02/13 00:05:54;;;;;;;3.40;1.40;;;;;;;;;;2084259;28;20022;-78
2023/02/13 00:07:13;;;;;;;2.97;1.50;;;;;;;;;;2084727;28;20049;-78
2023/02/13 00:08:32;;;;;;;2.78;1.55;;;;;;;;;;2085367;28;20029;-77
2023/02/13 00:09:50;;;;;;;3.63;1.73;;;;;;;;;;2081570;28;20487;-77
2023/02/13 00:11:10;;;;;;;3.50;1.73;;;;;;;;;;2085987;28;20041;-77
2023/02/13 00:12:28;;;;;;;4.50;1.50;;;;;;;;;;2083390;28;20025;-77
2023/02/13 00:13:47;;;;;;;4.50;1.63;;;;;;;;;;2083306;28;20072;-77
2023/02/13 00:15:06;;;;;;;5.13;1.55;;;;;;;;;;2080753;28;20045;-77
2023/02/13 00:16:26;;;;;;;4.65;1.83;;;;;;;;;;2085127;28;20029;-77
2023/02/13 00:17:45;;;;;;;4.18;1.65;;;;;;;;;;2082986;28;20029;-77
2023/02/13 00:19:04;;;;;;;3.92;1.67;;;;;;;;;;2084107;28;20017;-77
2023/02/13 00:20:23;;;;;;;3.40;1.52;;;;;;;;;;2086272;28;20108;-77
2023/02/13 00:21:42;;;;;;;4.50;1.90;;;;;;;;;;2085218;28;20021;-77
2023/02/13 00:23:01;;;;;;;3.00;1.25;;;;;;;;;;2085930;28;20033;-78
2023/02/13 00:24:20;;;;;;;4.20;1.60;;;;;;;;;;2085665;28;20061;-76
2023/02/13 00:25:39;;;;;;;5.97;1.55;;;;;;;;;;2085352;28;20025;-78
2023/02/13 00:26:58;;;;;;;6.85;1.70;;;;;;;;;;2085743;28;20045;-76
2023/02/13 00:28:17;;;;;;;5.25;1.63;;;;;;;;;;2082130;28;20030;-77
2023/02/13 00:29:35;;;;;;;2.78;1.25;;;;;;;;;;2080764;28;20426;-76
2023/02/13 00:31:01;;;;;;;2.63;1.30;;;;;;;;;;2088825;28;20057;-77
2023/02/13 00:32:20;;;;;;;4.18;1.40;;;;;;;;;;2084163;28;20030;-77
2023/02/13 00:33:39;;;;;;;8.00;1.70;;;;;;;;;;2081541;28;20025;-77
2023/02/13 00:34:59;;;;;;;3.80;1.25;;;;;;;;;;2083955;28;20049;-77
2023/02/13 00:36:20;;;;;;;5.32;1.40;;;;;;;;;;2085345;28;20033;-76
2023/02/13 00:37:39;;;;;;;3.53;1.90;;;;;;;;;;2085815;28;20021;-77
2023/02/13 00:38:58;;;;;;;2.88;1.67;;;;;;;;;;2079676;28;20025;-77
2023/02/13 00:40:17;;;;;;;3.33;1.38;;;;;;;;;;2085791;28;20037;-77
2023/02/13 00:41:36;;;;;;;4.72;1.20;;;;;;;;;;2083697;28;20104;-78
2023/02/13 00:42:55;;;;;;;3.38;1.15;;;;;;;;;;2084160;28;20021;-77
2023/02/13 00:44:13;;;;;;;4.40;1.40;;;;;;;;;;2084557;28;20446;-78
2023/02/13 00:45:32;;;;;;;1.67;1.17;;;;;;;;;;2083505;28;20041;-77
2023/02/13 00:46:54;;;;;;;2.08;1.33;;;;;;;;;;2083208;28;20029;-77
2023/02/13 00:48:13;;;;;;;1.95;1.33;;;;;;;;;;2073029;28;20527;-78
2023/02/13 00:49:33;;;;;;;4.05;1.77;;;;;;;;;;2081142;28;20037;-76
2023/02/13 00:50:52;;;;;;;3.55;1.48;;;;;;;;;;2085541;28;20402;-75
2023/02/13 00:52:11;;;;;;;2.25;1.20;;;;;;;;;;2084485;28;20029;-76
2023/02/13 00:53:30;;;;;;;2.25;1.45;;;;;;;;;;2085227;28;20413;-78
2023/02/13 00:54:49;;;;;;;1.77;1.20;;;;;;;;;;2083997;28;20029;-75
2023/02/13 00:56:08;;;;;;;3.72;1.40;;;;;;;;;;2085487;28;20021;-75
2023/02/13 00:57:28;;;;;;;3.97;1.67;;;;;;;;;;2083891;28;20022;-76
2023/02/13 00:58:47;;;;;;;2.15;1.40;;;;;;;;;;2080176;28;20022;-76
2023/02/13 01:00:06;;;;;;;1.95;0.95;;;;;;;;;;2082353;28;20485;-79
2023/02/13 01:01:25;;;;;;;3.03;1.10;;;;;;;;;;2084734;28;20109;-75
2023/02/13 01:02:43;;;;;;;3.17;1.20;;;;;;;;;;2086137;28;20025;-75
2023/02/13 01:04:02;;;;;;;1.63;1.20;;;;;;;;;;2084733;28;20025;-76
2023/02/13 01:05:23;;;;;;;2.40;1.17;;;;;;;;;;2085977;28;20029;-76
2023/02/13 01:06:42;;;;;;;2.78;1.23;;;;;;;;;;2079929;28;20033;-75
2023/02/13 01:08:01;;;;;;;2.88;1.42;;;;;;;;;;2081610;28;20029;-78
2023/02/13 01:09:20;;;;;;;6.53;1.58;;;;;;;;;;2083975;28;20021;-77
2023/02/13 01:10:39;;;;;;;2.92;1.33;;;;;;;;;;2084740;28;20037;-77
2023/02/13 01:11:58;;;;;;;1.80;1.15;;;;;;;;;;2084549;28;20445;-77
2023/02/13 01:13:17;;;;;;;2.80;1.08;;;;;;;;;;2084716;28;20061;-78
2023/02/13 01:14:36;;;;;;;3.97;1.33;;;;;;;;;;2084226;28;20037;-76
2023/02/13 01:15:55;;;;;;;3.13;1.00;;;;;;;;;;2086637;28;20033;-76
2023/02/13 01:17:16;;;;;;;1.48;1.10;;;;;;;;;;2085183;28;20025;-78
2023/02/13 01:18:34;;;;;;;2.60;1.30;;;;;;;;;;2085617;28;20026;-77
2023/02/13 01:19:53;;;;;;;1.33;0.93;;;;;;;;;;2086777;28;20033;-77
2023/02/13 01:21:16;;;;;;;3.58;1.25;;;;;;;;;;2093593;28;20088;-76
2023/02/13 01:22:35;;;;;;;2.78;1.35;;;;;;;;;;2074859;28;20030;-77
2023/02/13 01:23:56;;;;;;;2.97;0.98;;;;;;;;;;2080759;28;20029;-75
2023/02/13 01:25:15;;;;;;;2.83;1.42;;;;;;;;;;2084026;28;20030;-78
2023/02/13 01:26:34;;;;;;;2.92;1.27;;;;;;;;;;2083031;28;20402;-78
2023/02/13 01:27:53;;;;;;;1.15;1.05;;;;;;;;;;2083117;28;20036;-79
2023/02/13 01:29:12;;;;;;;3.88;1.15;;;;;;;;;;2083297;28;20036;-79
2023/02/13 01:30:31;;;;;;;5.00;1.27;;;;;;;;;;2083497;28;20033;-77
2023/02/13 01:31:50;;;;;;;3.58;1.17;;;;;;;;;;2082493;28;20029;-79
2023/02/13 01:33:09;;;;;;;5.22;1.00;;;;;;;;;;2078530;28;20025;-77
2023/02/13 01:34:28;;;;;;;3.20;1.23;;;;;;;;;;2080622;28;20056;-77
2023/02/13 01:35:47;;;;;;;5.85;1.48;;;;;;;;;;2080589;28;20030;-77
2023/02/13 01:37:07;;;;;;;3.83;1.20;;;;;;;;;;2086340;28;20025;-77
2023/02/13 01:38:25;;;;;;;1.92;1.30;;;;;;;;;;2083198;28;20041;-77
2023/02/13 01:39:44;;;;;;;3.35;1.35;;;;;;;;;;2081851;28;20061;-78
2023/02/13 01:41:03;;;;;;;3.17;1.10;;;;;;;;;;2083526;28;20057;-77
2023/02/13 01:42:27;;;;;;;3.53;1.17;;;;;;;;;;2071274;28;20038;-77
2023/02/13 01:43:54;;;;;;;3.33;1.15;;;;;;;;;;2083514;28;20033;-76
2023/02/13 01:45:29;;;;;;;3.08;1.30;;;;;;;;;;2083344;28;20108;-77
2023/02/13 01:46:48;;;;;;;5.47;0.90;;;;;;;;;;2081940;28;20064;-78
2023/02/13 01:48:07;;;;;;;3.10;1.05;;;;;;;;;;2084386;28;20036;-77
2023/02/13 01:49:26;;;;;;;1.77;1.30;;;;;;;;;;2082741;28;20021;-78
2023/02/13 01:50:48;;;;;;;2.67;0.85;;;;;;;;;;2084855;28;20072;-77
2023/02/13 01:52:08;;;;;;;1.50;0.85;;;;;;;;;;2083183;28;20033;-78
2023/02/13 01:53:32;;;;;;;2.58;1.25;;;;;;;;;;2087166;28;20026;-76
2023/02/13 01:54:51;;;;;;;3.67;1.08;;;;;;;;;;2084526;28;20346;-77
2023/02/13 01:56:12;;;;;;;1.90;1.17;;;;;;;;;;2082141;28;20088;-78
2023/02/13 01:57:32;;;;;;;1.60;1.23;;;;;;;;;;2083613;28;20025;-77
2023/02/13 01:58:53;;;;;;;2.95;1.00;;;;;;;;;;2085681;28;20049;-77
2023/02/13 02:00:16;;;;;;;4.38;1.27;;;;;;;;;;2082590;28;20025;-77
2023/02/13 02:01:35;;;;;;;0.82;0.80;;;;;;;;;;2083088;28;20029;-78
2023/02/13 02:03:01;;;;;;;2.55;1.27;;;;;;;;;;2080950;28;20378;-78
2023/02/13 02:04:29;;;;;;;5.00;0.93;;;;;;;;;;2083211;28;20037;-76
2023/02/13 02:05:49;;;;;;;1.80;1.15;;;;;;;;;;2086876;28;20033;-78
2023/02/13 02:07:22;;;;;;;2.97;0.95;;;;;;;;;;2086117;28;20033;-77
2023/02/13 02:08:42;;;;;;;1.65;1.02;;;;;;;;;;2082217;28;20889;-77
2023/02/13 02:10:03;;;;;;;2.28;1.20;;;;;;;;;;2086603;28;20104;-77
2023/02/13 02:11:45;;;;;;;3.17;1.42;;;;;;;;;;2080517;28;20050;-77
2023/02/13 02:13:10;;;;;;;2.70;1.25;;;;;;;;;;2083318;28;20025;-79
2023/02/13 02:14:30;;;;;;;3.13;0.98;;;;;;;;;;2083292;28;20025;-78
2023/02/13 02:15:49;;;;;;;4.03;1.10;;;;;;;;;;2079751;28;20462;-77
2023/02/13 02:17:08;;;;;;;4.07;1.00;;;;;;;;;;2082408;28;20025;-77
2023/02/13 02:18:27;;;;;;;4.47;1.05;;;;;;;;;;2080836;28;20025;-78
2023/02/13 02:19:49;;;;;;;3.40;0.90;;;;;;;;;;2083738;28;20021;-77
2023/02/13 02:21:07;;;;;;;3.92;1.20;;;;;;;;;;2083438;28;20029;-78
2023/02/13 02:22:26;;;;;;;4.35;1.40;;;;;;;;;;2082602;28;20033;-80
2023/02/13 02:24:04;;;;;;;2.08;0.90;;;;;;;;;;2082795;28;20017;-78
2023/02/13 02:25:30;;;;;;;1.58;1.02;;;;;;;;;;2084364;28;20029;-77
2023/02/13 02:26:56;;;;;;;2.08;0.93;;;;;;;;;;2075179;28;20053;-78
2023/02/13 02:28:15;;;;;;;4.07;1.23;;;;;;;;;;2081673;28;20029;-78
2023/02/13 02:29:43;;;;;;;3.92;1.20;;;;;;;;;;2082288;28;20030;-77
2023/02/13 02:31:21;;;;;;;2.72;1.00;;;;;;;;;;2082104;28;20116;-77
2023/02/13 02:32:59;;;;;;;1.70;0.98;;;;;;;;;;2080129;28;20045;-79
2023/02/13 02:34:37;;;;;;;3.95;1.20;;;;;;;;;;2079691;28;20034;-77
2023/02/13 02:36:14;;;;;;;2.28;0.93;;;;;;;;;;2083630;28;20402;-78
2023/02/13 02:37:39;;;;;;;2.08;0.90;;;;;;;;;;2081153;28;20033;-76
2023/02/13 02:39:01;;;;;;;3.42;1.08;;;;;;;;;;2083759;28;20390;-80
2023/02/13 02:40:36;;;;;;;3.83;0.90;;;;;;;;;;2078864;28;20033;-78
2023/02/13 02:42:14;;;;;;;2.85;1.00;;;;;;;;;;2083939;28;20034;-77
2023/02/13 02:43:51;;;;;;;1.80;0.80;;;;;;;;;;2079453;28;20025;-79
2023/02/13 02:45:16;;;;;;;3.67;1.50;;;;;;;;;;2086059;28;20033;-77
2023/02/13 02:46:36;;;;;;;2.67;0.80;;;;;;;;;;2084744;28;20029;-78
2023/02/13 02:51:18;;;;;;;3.58;0.98;;;;;;;;;;2079485;28;20041;-77
2023/02/13 02:52:56;;;;;;;2.88;0.85;;;;;;;;;;2088781;28;20510;-77
2023/02/13 02:56:22;;;;;;;3.63;0.93;;;;;;;;;;2079374;28;20029;-76
2023/02/13 03:06:20;;;;;;;3.83;1.42;;;;;;;;;;2082642;28;20025;-76
2023/02/13 03:07:39;;;;;;;3.55;1.05;;;;;;;;;;2079885;28;20507;-76
2023/02/13 03:13:57;;;;;;;6.47;1.20;;;;;;;;;;2077952;28;20068;-78
2023/02/13 03:15:18;;;;;;;2.13;0.98;;;;;;;;;;2080838;28;20534;-77
2023/02/13 03:23:28;;;;;;;2.25;0.90;;;;;;;;;;2081474;28;20474;-79
2023/02/13 03:24:57;;;;;;;2.30;1.00;;;;;;;;;;2086457;28;20430;-77
2023/02/13 03:26:31;;;;;;;3.28;0.98;;;;;;;;;;2080766;28;20061;-76
2023/02/13 03:31:22;;;;;;;3.78;1.20;;;;;;;;;;2081088;28;19905;-78
2023/02/13 03:33:00;;;;;;;4.15;1.08;;;;;;;;;;2079729;28;20029;-77
2023/02/13 03:34:21;;;;;;;4.00;0.80;;;;;;;;;;2086714;28;20025;-79
2023/02/13 03:39:10;;;;;;;1.85;0.90;;;;;;;;;;2085767;28;20033;-77
2023/02/13 03:41:17;;;;;;;4.95;1.00;;;;;;;;;;2084265;28;20890;-77
2023/02/13 03:42:31;;;;;;;3.70;0.80;;;;;;;;;;2083354;28;20021;-77
2023/02/13 03:44:08;;;;;;;3.88;1.05;;;;;;;;;;2086362;28;20133;-78
2023/02/13 03:45:53;;;;;;;2.13;0.90;;;;;;;;;;2087048;28;20033;-78
2023/02/13 03:47:13;;;;;;;2.90;1.17;;;;;;;;;;2081895;28;20029;-76
2023/02/13 03:50:12;;;;;;;3.72;1.13;;;;;;;;;;2082985;28;20073;-77
2023/02/13 03:51:38;;;;;;;2.47;1.10;;;;;;;;;;2081224;28;22242;-76
2023/02/13 03:53:00;;;;;;;2.40;1.10;;;;;;;;;;2082719;28;20490;-78
2023/02/13 03:54:21;;;;;;;4.57;1.20;;;;;;;;;;2081966;28;20033;-78
2023/02/13 03:59:16;;;;;;;2.95;1.00;;;;;;;;;;2081371;28;20021;-78
2023/02/13 04:00:38;;;;;;;4.38;0.90;;;;;;;;;;2084398;28;20856;-77
2023/02/13 04:01:57;;;;;;;1.50;1.00;;;;;;;;;;2083053;28;20727;-77
2023/02/13 04:03:21;;;;;;;4.28;1.33;;;;;;;;;;2081931;28;20394;-77
2023/02/13 04:04:40;;;;;;;5.47;1.98;;;;;;;;;;2092881;28;20028;-77
2023/02/13 04:06:07;;;;;;;2.72;0.98;;;;;;;;;;2088288;28;20513;-77
2023/02/13 04:07:30;;;;;;;1.85;0.98;;;;;;;;;;2080387;28;20028;-77
2023/02/13 04:08:49;;;;;;;1.98;1.08;;;;;;;;;;2081840;28;20069;-77
2023/02/13 04:10:13;;;;;;;3.33;0.90;;;;;;;;;;2092542;28;20037;-78
2023/02/13 04:11:35;;;;;;;2.25;0.80;;;;;;;;;;2081096;28;20033;-77
2023/02/13 04:12:56;;;;;;;4.15;1.00;;;;;;;;;;2086894;28;20077;-77
2023/02/13 04:14:24;;;;;;;2.60;1.33;;;;;;;;;;2082517;28;20065;-77
2023/02/13 04:16:00;;;;;;;2.22;1.00;;;;;;;;;;2081951;28;20025;-77
2023/02/13 04:17:24;;;;;;;1.35;0.88;;;;;;;;;;2081540;28;20034;-77
2023/02/13 04:18:43;;;;;;;2.65;1.30;;;;;;;;;;2082764;28;20056;-77
2023/02/13 04:20:03;;;;;;;4.30;1.23;;;;;;;;;;2077325;28;20045;-77
2023/02/13 04:21:23;;;;;;;2.88;1.05;;;;;;;;;;2080419;28;20550;-77
2023/02/13 04:22:42;;;;;;;1.50;0.93;;;;;;;;;;2079474;28;20498;-78
2023/02/13 04:24:01;;;;;;;2.60;0.98;;;;;;;;;;2080355;28;20084;-78
2023/02/13 04:25:20;;;;;;;2.25;1.10;;;;;;;;;;2078060;28;20108;-78
2023/02/13 04:26:41;;;;;;;3.03;1.00;;;;;;;;;;2080243;28;20032;-79
2023/02/13 04:28:00;;;;;;;2.80;1.10;;;;;;;;;;2079445;28;20037;-77
2023/02/13 04:29:21;;;;;;;4.60;0.90;;;;;;;;;;2079507;28;20041;-77
2023/02/13 04:30:39;;;;;;;3.03;1.00;;;;;;;;;;2083053;28;20033;-76
2023/02/13 04:31:58;;;;;;;4.22;0.75;;;;;;;;;;2082519;28;20104;-77
2023/02/13 04:33:17;;;;;;;3.20;1.05;;;;;;;;;;2081851;28;20045;-77
2023/02/13 04:34:37;;;;;;;2.17;0.90;;;;;;;;;;2082394;28;20029;-77
2023/02/13 04:35:56;;;;;;;3.25;1.10;;;;;;;;;;2083759;28;20025;-76
2023/02/13 04:37:14;;;;;;;2.83;1.00;;;;;;;;;;2083103;28;20061;-77
2023/02/13 04:38:33;;;;;;;1.52;1.00;;;;;;;;;;2083825;28;20030;-77
2023/02/13 04:39:52;;;;;;;2.88;0.85;;;;;;;;;;2083604;28;20033;-77
2023/02/13 04:41:11;;;;;;;2.90;1.10;;;;;;;;;;2085202;28;20039;-76
2023/02/13 04:42:30;;;;;;;3.67;1.20;;;;;;;;;;2084729;28;20026;-77
2023/02/13 04:43:51;;;;;;;4.13;1.25;;;;;;;;;;2082170;28;20538;-78
2023/02/13 04:45:10;;;;;;;4.88;1.10;;;;;;;;;;2084080;28;20033;-77
2023/02/13 04:46:29;;;;;;;5.70;1.38;;;;;;;;;;2083517;28;20029;-76
2023/02/13 04:47:49;;;;;;;3.90;1.23;;;;;;;;;;2082884;28;20037;-77
2023/02/13 04:49:09;;;;;;;2.35;1.17;;;;;;;;;;2081650;28;20033;-78
2023/02/13 04:50:27;;;;;;;2.55;0.90;;;;;;;;;;2083147;28;20105;-77
2023/02/13 04:51:46;;;;;;;2.88;1.00;;;;;;;;;;2083600;28;20034;-79
2023/02/13 04:53:06;;;;;;;2.80;0.90;;;;;;;;;;2084697;28;20037;-77
2023/02/13 04:54:24;;;;;;;3.33;1.30;;;;;;;;;;2085416;28;20029;-76
2023/02/13 04:55:43;;;;;;;2.83;0.90;;;;;;;;;;2086021;28;20037;-77
2023/02/13 04:57:02;;;;;;;4.97;0.90;;;;;;;;;;2084579;28;20029;-77
2023/02/13 04:58:21;;;;;;;2.50;1.20;;;;;;;;;;2084584;28;20393;-76
2023/02/13 04:59:40;;;;;;;3.25;1.00;;;;;;;;;;2083970;28;20025;-77
2023/02/13 05:00:59;;;;;;;2.50;1.10;;;;;;;;;;2084294;28;20017;-76
2023/02/13 05:02:17;;;;;;;4.82;0.90;;;;;;;;;;2085010;28;20995;-77
2023/02/13 05:03:36;;;;;;;3.50;0.98;;;;;;;;;;2083931;28;20057;-76
2023/02/13 05:04:55;;;;;;;2.28;1.00;;;;;;;;;;2082436;28;20029;-77
2023/02/13 05:06:14;;;;;;;6.38;1.15;;;;;;;;;;2083662;28;20025;-77
2023/02/13 05:07:33;;;;;;;2.75;0.80;;;;;;;;;;2084568;28;20418;-77
2023/02/13 05:08:52;;;;;;;2.25;1.40;;;;;;;;;;2070209;28;20458;-77
2023/02/13 05:10:11;;;;;;;3.83;1.33;;;;;;;;;;2075897;28;20081;-77
2023/02/13 05:11:30;;;;;;;5.43;1.73;;;;;;;;;;2081018;28;20410;-76
2023/02/13 05:12:49;;;;;;;3.75;1.02;;;;;;;;;;2082893;28;20021;-77
2023/02/13 05:14:09;;;;;;;3.63;1.35;;;;;;;;;;2083232;28;20160;-78
2023/02/13 05:15:28;;;;;;;3.30;1.02;;;;;;;;;;2083030;28;20029;-79
2023/02/13 05:16:48;;;;;;;5.18;1.60;;;;;;;;;;2088517;28;20018;-76
2023/02/13 05:18:07;;;;;;;2.65;1.10;;;;;;;;;;2085916;28;20026;-77
2023/02/13 05:19:26;;;;;;;2.17;0.88;;;;;;;;;;2081031;28;20469;-77
2023/02/13 05:23:21;;;;;;;3.58;1.23;;;;;;;;;;2086025;28;20033;-77
2023/02/13 05:24:02;;;;;;;2.17;1.00;;;;;;;;;;2083623;28;20033;-77
2023/02/13 05:25:21;;;;;;;4.13;1.45;;;;;;;;;;2081433;28;20025;-77
2023/02/13 05:26:40;;;;;;;4.43;1.10;;;;;;;;;;2078578;28;20125;-78
2023/02/13 05:27:58;;;;;;;4.80;1.38;;;;;;;;;;2080502;28;20048;-78
2023/02/13 05:29:17;;;;;;;2.33;1.05;;;;;;;;;;2082232;28;20025;-78
2023/02/13 05:30:38;;;;;;;2.78;1.13;;;;;;;;;;2080152;28;20041;-78
2023/02/13 05:31:57;;;;;;;3.17;1.02;;;;;;;;;;2084530;28;20029;-79
2023/02/13 05:33:16;;;;;;;1.85;1.08;;;;;;;;;;2081856;28;20383;-77
2023/02/13 05:34:35;;;;;;;3.85;1.20;;;;;;;;;;2082046;28;20033;-77
2023/02/13 05:35:54;;;;;;;2.03;1.27;;;;;;;;;;2079832;28;20065;-77
2023/02/13 05:37:12;;;;;;;1.77;1.00;;;;;;;;;;2082375;28;20034;-78
2023/02/13 05:38:31;;;;;;;4.85;1.27;;;;;;;;;;2081355;28;20485;-78
2023/02/13 05:39:51;;;;;;;3.50;1.00;;;;;;;;;;2080033;28;20470;-78
2023/02/13 05:41:12;;;;;;;5.65;1.17;;;;;;;;;;2076156;28;20089;-77
2023/02/13 05:42:31;;;;;;;5.10;1.20;;;;;;;;;;2084603;28;20021;-79
2023/02/13 05:43:50;;;;;;;3.38;0.93;;;;;;;;;;2082476;28;20445;-77
2023/02/13 05:45:09;;;;;;;5.65;1.30;;;;;;;;;;2082297;28;20045;-77
2023/02/13 05:46:28;;;;;;;9.65;1.10;;;;;;;;;;2083921;28;20029;-76
2023/02/13 05:47:47;;;;;;;4.20;1.10;;;;;;;;;;2081954;28;20014;-77
2023/02/13 05:49:07;;;;;;;4.65;1.17;;;;;;;;;;2083585;28;20068;-78
2023/02/13 05:50:26;;;;;;;4.05;1.00;;;;;;;;;;2085849;28;20037;-79
2023/02/13 05:51:46;;;;;;;4.97;1.08;;;;;;;;;;2082380;28;20025;-80
2023/02/13 05:53:05;;;;;;;2.70;1.05;;;;;;;;;;2081282;28;20889;-78
2023/02/13 05:54:24;;;;;;;5.65;1.17;;;;;;;;;;2080676;28;20045;-79
2023/02/13 05:55:42;;;;;;;2.83;1.17;;;;;;;;;;2082920;28;20033;-78
2023/02/13 05:57:02;;;;;;;2.20;0.98;;;;;;;;;;2081482;28;20021;-77
2023/02/13 05:58:21;;;;;;;1.70;1.10;;;;;;;;;;2080794;28;20060;-79
2023/02/13 05:59:40;;;;;;;5.22;1.33;;;;;;;;;;2075534;28;20018;-76
2023/02/13 06:01:00;;;;;;;2.65;1.13;;;;;;;;;;2076222;28;20033;-78
2023/02/13 06:02:18;;;;;;;1.88;0.98;;;;;;;;;;2082604;28;20090;-77
2023/02/13 06:03:39;;;;;;;4.95;1.20;;;;;;;;;;2082004;28;20022;-77
2023/02/13 06:04:58;;;;;;;3.92;1.20;;;;;;;;;;2081271;28;20034;-77
2023/02/13 06:06:17;;;;;;;2.75;1.00;;;;;;;;;;2081451;28;20564;-77
2023/02/13 06:07:36;;;;;;;4.80;1.58;;;;;;;;;;2078702;28;20513;-77
2023/02/13 06:08:55;;;;;;;3.25;0.85;;;;;;;;;;2080642;28;20490;-77
2023/02/13 06:10:14;;;;;;;2.33;1.15;;;;;;;;;;2090616;28;20420;-77
2023/02/13 06:11:34;;;;;;;3.55;1.15;;;;;;;;;;2081533;28;20093;-79
2023/02/13 06:12:52;;;;;;;5.95;1.42;;;;;;;;;;2079122;28;20083;-78
2023/02/13 06:14:13;;;;;;;5.88;1.08;;;;;;;;;;2080358;28;20038;-78
2023/02/13 06:15:32;;;;;;;3.90;1.20;;;;;;;;;;2078365;28;20112;-78
2023/02/13 06:16:51;;;;;;;3.10;1.02;;;;;;;;;;2078707;28;20025;-78
2023/02/13 06:18:11;;;;;;;3.83;1.17;;;;;;;;;;2085467;28;20033;-79
2023/02/13 06:19:30;;;;;;;2.72;1.17;;;;;;;;;;2078241;28;20026;-79
2023/02/13 06:20:49;;;;;;;4.72;1.33;;;;;;;;;;2084999;28;20474;-79
2023/02/13 06:22:08;;;;;;;7.00;1.45;;;;;;;;;;2077987;28;20030;-78
2023/02/13 06:23:27;;;;;;;3.03;1.60;;;;;;;;;;2077178;28;20034;-77
2023/02/13 06:24:46;;;;;;;3.15;1.10;;;;;;;;;;2074996;28;20052;-78
2023/02/13 06:26:06;;;;;;;8.50;1.20;;;;;;;;;;2078358;28;20053;-78
2023/02/13 06:27:26;;;;;;;4.22;1.30;;;;;;;;;;2080564;28;20037;-78
2023/02/13 06:28:45;;;;;;;5.65;1.20;;;;;;;;;;2084068;28;20545;-78
2023/02/13 06:30:04;;;;;;;3.30;1.25;;;;;;;;;;2082577;28;20024;-79
2023/02/13 06:31:23;;;;;;;4.13;1.20;;;;;;;;;;2094374;28;20028;-78
2023/02/13 06:32:44;;;;;;;3.78;1.30;;;;;;;;;;2087477;28;20037;-77
2023/02/13 06:34:03;;;;;;;5.07;1.10;;;;;;;;;;2089271;28;20029;-79
2023/02/13 06:35:22;;;;;;;3.05;1.20;;;;;;;;;;2081426;28;20117;-79
2023/02/13 06:36:41;;;;;;;4.97;1.45;;;;;;;;;;2088845;28;20021;-79
2023/02/13 06:38:00;;;;;;;2.30;1.30;;;;;;;;;;2082880;28;20033;-78
2023/02/13 06:39:19;;;;;;;3.05;0.85;;;;;;;;;;2079822;28;20486;-79
2023/02/13 06:40:38;;;;;;;3.65;1.30;;;;;;;;;;2082492;28;20025;-79
2023/02/13 06:41:57;;;;;;;1.40;1.10;;;;;;;;;;2082572;28;20025;-76
2023/02/13 06:43:16;;;;;;;1.67;1.27;;;;;;;;;;2080855;28;20032;-78
2023/02/13 06:44:35;;;;;;;1.90;0.93;;;;;;;;;;2082249;28;20021;-78
2023/02/13 06:45:54;;;;;;;2.58;1.00;;;;;;;;;;2083599;28;20493;-76
2023/02/13 06:47:13;;;;;;;2.78;1.17;;;;;;;;;;2080431;28;20120;-77
2023/02/13 06:48:32;;;;;;;2.92;1.30;;;;;;;;;;2082329;28;20037;-78
2023/02/13 06:49:51;;;;;;;4.63;1.50;;;;;;;;;;2082878;28;20033;-79
2023/02/13 06:51:10;;;;;;;2.83;1.63;;;;;;;;;;2077235;28;20037;-80
2023/02/13 06:52:29;;;;;;;4.07;1.20;;;;;;;;;;2084706;28;20592;-81
2023/02/13 06:53:48;;;;;;;3.00;1.17;;;;;;;;;;2080647;28;20030;-79
2023/02/13 06:55:09;;;;;;;6.10;1.30;;;;;;;;;;2088889;28;20033;-87
2023/02/13 06:56:28;;;;;;;2.58;1.17;;;;;;;;;;2077649;28;20038;-79
2023/02/13 06:57:48;;;;;;;3.95;1.70;;;;;;;;;;2078799;28;20033;-78
2023/02/13 06:59:07;;;;;;;1.65;1.20;;;;;;;;;;2080599;28;20112;-78
2023/02/13 07:00:26;;;;;;;2.50;0.95;;;;;;;;;;2080235;28;20025;-79
2023/02/13 07:01:45;;;;;;;5.57;1.65;;;;;;;;;;2080399;28;20104;-80
2023/02/13 07:03:05;;;;;;;4.53;1.00;;;;;;;;;;2081387;28;20026;-81
2023/02/13 07:04:24;;;;;;;2.63;1.20;;;;;;;;;;2084144;28;20212;-82
2023/02/13 07:05:43;;;;;;;4.60;1.20;;;;;;;;;;2082976;28;20403;-84
2023/02/13 07:07:03;;;;;;;3.25;1.23;;;;;;;;;;2079868;28;20041;-83
2023/02/13 07:08:24;;;;;;;2.28;1.60;;;;;;;;;;2082124;28;20025;-86
2023/02/13 07:09:43;;;;;;;2.08;1.27;;;;;;;;;;2080002;28;20026;-84
2023/02/13 07:11:02;;;;;;;4.55;1.33;;;;;;;;;;2077421;28;20041;-83
2023/02/13 07:12:21;;;;;;;3.63;1.27;;;;;;;;;;2081975;28;20037;-81
2023/02/13 07:13:41;;;;;;;2.90;1.20;;;;;;;;;;2084870;28;20033;-83
2023/02/13 07:15:00;;;;;;;1.75;1.17;;;;;;;;;;2084234;28;20057;-82
2023/02/13 07:16:19;;;;;;;5.68;1.50;;;;;;;;;;2084880;28;20021;-81
2023/02/13 07:17:38;;;;;;;2.45;1.27;;;;;;;;;;2080776;28;20553;-81
2023/02/13 07:18:56;;;;;;;4.15;1.60;;;;;;;;;;2084860;28;20037;-81
2023/02/13 07:20:18;;;;;;;3.80;1.60;;;;;;;;;;2084731;28;20052;-80
2023/02/13 07:21:38;;;;;;;4.22;1.23;;;;;;;;;;2076723;28;20022;-80
2023/02/13 07:23:00;;;;;;;7.47;1.30;;;;;;;;;;2076829;28;20041;-84
2023/02/13 07:24:19;;;;;;;7.82;1.65;;;;;;;;;;2086211;28;20025;-80
2023/02/13 07:25:38;;;;;;;4.38;1.70;;;;;;;;;;2086274;28;20029;-80
2023/02/13 07:26:57;;;;;;;4.38;1.00;;;;;;;;;;2084844;28;20058;-80
2023/02/13 07:28:16;;;;;;;0.98;0.90;;;;;;;;;;2086141;28;20479;-81
2023/02/13 07:29:35;;;;;;;4.80;1.40;;;;;;;;;;2082198;28;20040;-81
2023/02/13 07:30:54;;;;;;;3.72;1.35;;;;;;;;;;2084904;28;20025;-80
2023/02/13 07:32:14;;;;;;;2.38;1.20;;;;;;;;;;2083278;28;20037;-81
2023/02/13 07:33:33;;;;;;;2.05;1.40;;;;;;;;;;2081019;28;20438;-81
2023/02/13 07:34:52;;;;;;;3.70;1.30;;;;;;;;;;2082187;28;20081;-81
2023/02/13 07:36:11;;;;;;;8.18;1.40;;;;;;;;;;2085551;28;20042;-81
2023/02/13 07:37:30;;;;;;;6.28;1.60;;;;;;;;;;2082849;28;20471;-82
2023/02/13 07:38:49;;;;;;;3.08;1.13;;;;;;;;;;2085363;28;20026;-83
2023/02/13 07:40:08;;;;;;;6.68;1.48;;;;;;;;;;2086417;28;20128;-80
2023/02/13 07:41:27;;;;;;;3.05;1.20;;;;;;;;;;2084916;28;20120;-79
2023/02/13 07:42:46;;;;;;;2.35;0.98;;;;;;;;;;2081793;28;20029;-81
2023/02/13 07:44:05;;;;;;;3.40;1.08;;;;;;;;;;2080705;28;20048;-80
2023/02/13 07:45:24;;;;;;;3.78;1.15;;;;;;;;;;2083797;28;20033;-81
2023/02/13 07:46:43;;;;;;;2.28;1.17;;;;;;;;;;2083497;28;20034;-80
2023/02/13 07:48:02;;;;;;;4.15;1.00;;;;;;;;;;2078555;28;20045;-80
2023/02/13 07:49:23;;;;;;;1.13;0.95;;;;;;;;;;2082680;28;20033;-81
2023/02/13 07:50:42;;;;;;;2.63;1.30;;;;;;;;;;2084028;28;20037;-81
2023/02/13 07:52:00;;;;;;;2.45;1.20;;;;;;;;;;2081596;28;20927;-80
2023/02/13 07:53:19;;;;;;;2.92;1.20;;;;;;;;;;2082988;28;20080;-82
2023/02/13 07:54:45;;;;;;;3.05;1.27;;;;;;;;;;2082985;28;20034;-81
2023/02/13 07:56:08;;;;;;;2.47;1.35;;;;;;;;;;2084346;28;20479;-81
2023/02/13 07:57:27;;;;;;;4.22;1.27;;;;;;;;;;2079894;28;20025;-84
2023/02/13 07:58:46;;;;;;;3.67;1.23;;;;;;;;;;2081707;28;20030;-83
2023/02/13 08:00:05;;;;;;;3.42;1.25;;;;;;;;;;2083048;28;20025;-83
2023/02/13 08:01:27;;;;;;;3.20;1.50;;;;;;;;;;2081823;28;20536;-82
2023/02/13 08:02:46;;;;;;;5.38;1.65;;;;;;;;;;2079386;28;21563;-81
2023/02/13 08:04:05;;;;;;;3.10;1.02;;;;;;;;;;2081122;28;20096;-83
2023/02/13 08:05:24;;;;;;;2.97;1.17;;;;;;;;;;2084994;28;20447;-83
2023/02/13 08:06:43;;;;;;;2.65;1.30;;;;;;;;;;2084166;28;20041;-83
2023/02/13 08:08:05;;;;;;;6.78;1.73;;;;;;;;;;2083972;28;20040;-84
2023/02/13 08:12:44;;;;;;;2.67;1.10;;;;;;;;;;2084620;28;20033;-83
2023/02/13 08:14:03;;;;;;;7.72;1.10;;;;;;;;;;2084769;28;20037;-84
2023/02/13 08:15:22;;;;;;;1.75;1.13;;;;;;;;;;2084487;28;20033;-84
2023/02/13 08:16:41;;;;;;;2.17;1.40;;;;;;;;;;2084241;28;20025;-85
2023/02/13 08:18:01;;;;;;;3.33;1.20;;;;;;;;;;2084597;28;20025;-86
2023/02/13 08:19:26;;;;;;;1.63;1.13;;;;;;;;;;2079204;28;20033;-85
2023/02/13 08:24:34;;;;;;;2.67;1.52;;;;;;;;;;2089542;28;20013;-89
2023/02/13 08:25:53;;;;;;;5.03;1.42;;;;;;;;;;2085973;28;20032;-88
2023/02/13 08:27:15;;;;;;;2.65;1.25;;;;;;;;;;2088388;28;20048;-90
2023/02/13 08:28:34;;;;;;;2.80;1.38;;;;;;;;;;2083453;28;20029;-90
2023/02/13 08:29:59;;;;;;;1.38;0.95;;;;;;;;;;2084294;28;20038;-91
2023/02/13 08:31:18;;;;;;;3.90;1.58;;;;;;;;;;2086718;28;20064;-88
2023/02/13 08:32:40;;;;;;;2.80;1.38;;;;;;;;;;2088311;28;20022;-88
2023/02/13 08:33:59;;;;;;;2.15;1.27;;;;;;;;;;2089702;28;20024;-83
2023/02/13 08:35:21;;;;;;;2.13;1.00;;;;;;;;;;2090240;28;20025;-85
2023/02/13 08:36:40;;;;;;;2.75;1.27;;;;;;;;;;2079139;28;20017;-87
2023/02/13 08:38:03;;;;;;;4.10;1.08;;;;;;;;;;2081266;28;20021;-85
2023/02/13 08:39:23;;;;;;;2.67;1.02;;;;;;;;;;2083941;28;20299;-86
2023/02/13 08:41:20;;;;;;;;;;;;;;;;;;;;;
2023/02/13 08:45:04;;;;;;;1.77;1.30;;;;;;;;;;2084385;28;20408;-87
2023/02/13 08:46:23;;;;;;;3.60;1.15;;;;;;;;;;2075492;28;20414;-80
2023/02/13 08:50:16;;;;;;;1.88;1.13;;;;;;;;;;2087111;28;20931;-95
2023/02/13 08:51:36;;;;;;;3.70;1.35;;;;;;;;;;2081574;28;20030;-85
2023/02/13 08:52:58;;;;;;;2.25;1.38;;;;;;;;;;2080097;28;20033;-83
2023/02/13 08:54:17;;;;;;;1.40;1.10;;;;;;;;;;2085022;28;20056;-83
2023/02/13 08:56:01;;;;;;;2.38;1.25;;;;;;;;;;2086602;28;20018;-85
2023/02/13 08:57:41;;;;;;;2.95;1.30;;;;;;;;;;2082665;28;20105;-86